Current Conditions
Weitestgehend klar




Pressure
1021.92 (hPa) - 30.18 (inHG)
Visibility

10.0 (km) - 6.2 (miles)
   Temperature
4  °C
39°F
1  °C
Dewpoint
81  %
 Humidity
   Wind Speed
11  km/h
6  kts
7  mph
3.1  m/s
   Wind Direction
 320°
North West
   Airport Data
EDDP
Location Leipzig Halle 90 km (55.94 mi)
Metar :EDDP 040420Z 32006KT CAVOK 04/01 Q1022 NOSIG
Sat 4th April 05:20 am
   Raw Metar Info
Raw METAR is the most common format in the world for the transmission of observational weather data. It is highly standardized through the International Civil Aviation Organization (ICAO), which allows it to be understood throughout most of the world.
   API Info
Data Provided by
https://www.checkwx.com/weather/EDDP
   © Info
CSS/SVG/PHP scripts were developed by weather34.com for use in the weather34 template © 2015-2020

Guide Info provided by Metar-Wikipedia